Time;durP1;ratioP1;P1;durP2;ratioP2;P2;SDS_P1;SDS_P2;PMS_P1;PMS_P2;Temp;Humidity;BMP_temperature;BMP_pressure;BME280_temperature;BME280_humidity;BME280_pressure;Samples;Min_cycle;Max_cycle;Signal;HPM_P1;HPM_P2
2023/10/08 00:02:05;;;;;;;1.90;1.67;;;22.50;99.90;;;;;;4988406;28;20564;-62
2023/10/08 00:04:37;;;;;;;1.63;1.50;;;22.60;99.90;;;;;;4993534;28;20466;-62
2023/10/08 00:07:07;;;;;;;2.03;1.93;;;22.50;99.90;;;;;;4997121;28;20455;-61
2023/10/08 00:09:36;;;;;;;1.83;1.47;;;22.50;99.90;;;;;;4996233;28;20454;-62
2023/10/08 00:12:04;;;;;;;2.27;2.07;;;22.50;99.90;;;;;;4998118;28;20490;-62
2023/10/08 00:14:32;;;;;;;1.93;1.73;;;22.50;99.90;;;;;;4996610;28;20482;-61
2023/10/08 00:17:00;;;;;;;1.63;1.40;;;22.50;99.90;;;;;;4995858;28;21179;-62
2023/10/08 00:19:33;;;;;;;2.63;2.20;;;22.50;99.90;;;;;;4998350;28;20548;-62
2023/10/08 00:22:04;;;;;;;2.07;1.43;;;22.50;99.90;;;;;;4998859;28;20492;-62
2023/10/08 00:24:33;;;;;;;2.10;1.90;;;22.50;99.90;;;;;;4998882;28;20466;-60
2023/10/08 00:27:00;;;;;;;1.97;1.77;;;22.50;99.90;;;;;;4997742;28;20462;-62
2023/10/08 00:29:31;;;;;;;2.20;1.67;;;22.50;99.90;;;;;;4999953;28;20463;-60
2023/10/08 00:31:58;;;;;;;1.93;1.77;;;22.40;99.90;;;;;;5002507;28;20482;-62
2023/10/08 00:34:27;;;;;;;2.30;2.00;;;22.50;99.90;;;;;;5003289;28;20470;-60
2023/10/08 00:36:54;;;;;;;2.33;1.77;;;22.40;99.90;;;;;;5003377;28;20462;-60
2023/10/08 00:39:23;;;;;;;3.57;2.30;;;22.40;99.90;;;;;;5000834;28;20799;-63
2023/10/08 00:41:58;;;;;;;2.03;1.63;;;22.50;99.90;;;;;;5005498;28;20536;-63
2023/10/08 00:44:29;;;;;;;3.30;1.83;;;22.40;99.90;;;;;;5003347;28;20456;-62
2023/10/08 00:47:00;;;;;;;2.40;2.00;;;22.50;99.90;;;;;;4995894;28;20982;-62
2023/10/08 00:49:40;;;;;;;1.93;1.70;;;22.40;99.90;;;;;;5001536;28;20954;-62
2023/10/08 00:52:29;;;;;;;2.13;1.90;;;22.40;99.90;;;;;;5002996;28;20482;-61
2023/10/08 00:55:06;;;;;;;2.30;1.57;;;22.40;99.90;;;;;;5001453;28;20458;-61
2023/10/08 00:57:36;;;;;;;1.60;1.40;;;22.40;99.90;;;;;;5003292;28;20485;-62
2023/10/08 01:00:06;;;;;;;3.30;2.00;;;22.40;99.90;;;;;;5004315;28;20534;-62
2023/10/08 01:02:44;;;;;;;2.37;2.10;;;22.40;99.90;;;;;;5026375;22;20650;-56
2023/10/08 01:05:12;;;;;;;2.07;1.87;;;22.40;99.90;;;;;;5031429;28;20611;-55
2023/10/08 01:07:44;;;;;;;2.23;1.97;;;22.40;99.90;;;;;;5027580;28;20711;-57
2023/10/08 01:10:13;;;;;;;2.40;1.83;;;22.40;99.90;;;;;;5026657;28;21394;-53
2023/10/08 01:12:54;;;;;;;2.33;2.07;;;22.40;99.90;;;;;;5022973;28;20566;-57
2023/10/08 01:15:28;;;;;;;2.33;2.13;;;22.30;99.90;;;;;;5028919;28;21820;-58
2023/10/08 01:18:00;;;;;;;2.77;2.50;;;22.30;99.90;;;;;;5027153;28;20582;-53
2023/10/08 01:20:37;;;;;;;2.73;1.73;;;22.30;99.90;;;;;;5028180;28;20830;-55
2023/10/08 01:23:10;;;;;;;2.83;1.90;;;22.30;99.90;;;;;;5025815;28;20468;-55
2023/10/08 01:25:38;;;;;;;2.40;1.57;;;22.30;99.90;;;;;;5025808;28;20460;-57
2023/10/08 01:28:14;;;;;;;2.17;1.70;;;22.30;99.90;;;;;;5029188;28;20449;-54
2023/10/08 01:30:42;;;;;;;2.10;1.90;;;22.30;99.90;;;;;;5026885;28;20465;-54
2023/10/08 01:33:12;;;;;;;1.93;1.73;;;22.30;99.90;;;;;;5027701;28;20528;-54
2023/10/08 01:35:40;;;;;;;2.40;1.80;;;22.30;99.90;;;;;;5023335;28;20457;-57
2023/10/08 01:38:13;;;;;;;1.70;1.40;;;22.30;99.90;;;;;;5025168;28;20462;-52
2023/10/08 01:40:42;;;;;;;2.07;1.60;;;22.30;99.90;;;;;;5023862;28;20492;-54
2023/10/08 01:43:10;;;;;;;2.00;1.63;;;22.30;99.90;;;;;;5024837;28;20488;-52
2023/10/08 01:45:40;;;;;;;1.80;1.60;;;22.30;99.90;;;;;;5026922;28;20470;-53
2023/10/08 01:48:09;;;;;;;1.70;1.50;;;22.30;99.90;;;;;;5027832;28;20449;-56
2023/10/08 01:50:36;;;;;;;2.30;2.10;;;22.30;99.90;;;;;;5023893;28;20462;-50
2023/10/08 01:53:05;;;;;;;2.10;1.57;;;22.30;99.90;;;;;;5027696;28;20481;-54
2023/10/08 01:55:44;;;;;;;1.93;1.50;;;22.20;99.90;;;;;;5023547;28;20829;-52
2023/10/08 01:58:14;;;;;;;2.00;1.63;;;22.20;99.90;;;;;;5020457;28;20460;-57
2023/10/08 02:00:45;;;;;;;2.70;2.00;;;22.20;99.90;;;;;;5024999;28;20460;-55
2023/10/08 02:03:12;;;;;;;2.50;2.20;;;22.20;99.90;;;;;;5026422;28;20469;-58
2023/10/08 02:05:41;;;;;;;1.87;1.57;;;22.20;99.90;;;;;;5028540;28;20492;-58
2023/10/08 02:08:09;;;;;;;2.00;1.80;;;22.20;99.90;;;;;;5024868;28;20505;-57
2023/10/08 02:10:38;;;;;;;1.97;1.77;;;22.20;99.90;;;;;;5027337;28;20476;-57
2023/10/08 02:13:05;;;;;;;3.23;1.37;;;22.20;99.90;;;;;;5019239;28;21301;-53
2023/10/08 02:15:32;;;;;;;2.00;1.80;;;22.20;99.90;;;;;;5026558;28;20553;-56
2023/10/08 02:17:59;;;;;;;1.90;1.63;;;22.20;99.90;;;;;;5026579;28;20469;-54
2023/10/08 02:20:27;;;;;;;2.10;1.90;;;22.20;99.90;;;;;;5029760;28;20539;-58
2023/10/08 02:22:54;;;;;;;1.90;1.60;;;22.20;99.90;;;;;;5024264;28;20559;-56
2023/10/08 02:25:20;;;;;;;2.13;1.60;;;22.20;99.90;;;;;;5023803;28;20462;-54
2023/10/08 02:27:48;;;;;;;2.10;1.77;;;22.20;99.90;;;;;;5022521;28;20465;-53
2023/10/08 02:30:17;;;;;;;2.17;1.77;;;22.20;99.90;;;;;;5027333;28;20454;-56
2023/10/08 02:32:45;;;;;;;2.73;2.07;;;22.20;99.90;;;;;;5025842;28;20473;-57
2023/10/08 02:35:12;;;;;;;2.47;1.90;;;22.20;99.90;;;;;;5025715;28;20971;-55
2023/10/08 02:37:40;;;;;;;2.90;2.20;;;22.20;99.90;;;;;;5026294;28;20468;-53
2023/10/08 02:40:16;;;;;;;1.87;1.53;;;22.20;99.90;;;;;;5026491;28;20545;-53
2023/10/08 02:42:44;;;;;;;2.07;1.87;;;22.20;99.90;;;;;;5020692;28;20507;-54
2023/10/08 02:45:13;;;;;;;1.50;1.40;;;22.20;99.90;;;;;;5026278;28;20465;-55
2023/10/08 02:47:41;;;;;;;2.00;1.80;;;22.20;99.90;;;;;;5025134;28;20548;-53
2023/10/08 02:50:10;;;;;;;1.50;1.30;;;22.10;99.90;;;;;;5023765;28;20449;-57
2023/10/08 02:52:37;;;;;;;2.60;1.90;;;22.20;99.90;;;;;;5023736;28;20476;-50
2023/10/08 02:55:05;;;;;;;2.10;1.90;;;22.10;99.90;;;;;;5024673;28;20468;-51
2023/10/08 02:57:31;;;;;;;2.40;1.90;;;22.10;99.90;;;;;;5023218;28;20457;-53
2023/10/08 02:59:59;;;;;;;2.73;1.80;;;22.10;99.90;;;;;;5024947;28;20457;-53
2023/10/08 03:02:27;;;;;;;1.70;1.50;;;22.10;99.90;;;;;;5026242;28;20471;-55
2023/10/08 03:04:55;;;;;;;2.20;1.90;;;22.10;99.90;;;;;;5021504;28;20453;-53
2023/10/08 03:07:22;;;;;;;1.90;1.50;;;22.10;99.90;;;;;;5027479;28;20468;-54
2023/10/08 03:09:50;;;;;;;3.23;2.00;;;22.10;99.90;;;;;;5025457;28;20462;-56
2023/10/08 03:12:17;;;;;;;2.57;1.90;;;22.10;99.90;;;;;;5025126;28;20449;-51
2023/10/08 03:15:00;;;;;;;2.00;1.70;;;22.10;99.90;;;;;;5024939;28;20500;-52
2023/10/08 03:17:29;;;;;;;1.80;1.43;;;22.10;99.90;;;;;;5025859;28;20461;-57
2023/10/08 03:20:01;;;;;;;1.97;1.77;;;22.00;99.90;;;;;;5023867;28;20468;-51
2023/10/08 03:22:33;;;;;;;1.90;1.53;;;22.20;99.90;;;;;;5026288;28;20465;-58
2023/10/08 03:25:14;;;;;;;2.30;1.77;;;22.10;99.90;;;;;;5024123;28;20984;-51
2023/10/08 03:27:41;;;;;;;1.73;1.63;;;22.10;99.90;;;;;;5026709;28;21058;-55
2023/10/08 03:30:14;;;;;;;1.87;1.73;;;22.10;99.90;;;;;;5018859;28;20548;-53
2023/10/08 03:32:44;;;;;;;1.60;1.20;;;22.10;99.90;;;;;;5022829;28;20654;-57
2023/10/08 03:35:11;;;;;;;2.13;1.57;;;22.10;99.90;;;;;;5024416;28;20468;-57
2023/10/08 03:37:46;;;;;;;2.00;1.60;;;22.10;99.90;;;;;;5023702;28;20588;-48
2023/10/08 03:40:25;;;;;;;1.77;1.67;;;22.10;99.90;;;;;;5025150;28;20469;-51
2023/10/08 03:42:55;;;;;;;2.00;1.63;;;22.10;99.90;;;;;;5023998;28;20465;-53
2023/10/08 03:48:06;;;;;;;1.93;1.73;;;22.00;99.90;;;;;;5018728;28;20452;-56
2023/10/08 03:50:40;;;;;;;2.43;2.00;;;22.00;99.90;;;;;;5023803;28;21689;-56
2023/10/08 03:53:11;;;;;;;2.20;1.67;;;22.00;99.90;;;;;;5024581;28;21052;-54
2023/10/08 03:55:40;;;;;;;1.47;1.10;;;22.00;99.90;;;;;;5025909;28;20669;-55
2023/10/08 03:58:11;;;;;;;2.33;2.13;;;22.00;99.90;;;;;;5018518;28;20465;-57
2023/10/08 04:00:41;;;;;;;2.60;2.10;;;22.00;99.90;;;;;;5020677;28;21191;-55
2023/10/08 04:03:11;;;;;;;2.00;1.67;;;22.00;99.90;;;;;;5021012;28;20555;-55
2023/10/08 04:05:59;;;;;;;2.50;1.80;;;22.00;99.90;;;;;;5027521;28;20460;-55
2023/10/08 04:08:42;;;;;;;2.97;1.70;;;22.00;99.90;;;;;;5028491;28;22178;-57
2023/10/08 04:11:27;;;;;;;1.63;1.50;;;22.00;99.90;;;;;;5027914;28;20464;-56
2023/10/08 04:13:54;;;;;;;1.80;1.50;;;22.00;99.90;;;;;;5027234;28;21182;-58
2023/10/08 04:16:21;;;;;;;1.80;1.53;;;22.00;99.90;;;;;;5025187;28;22352;-57
2023/10/08 04:18:55;;;;;;;1.87;1.50;;;22.00;99.90;;;;;;5028590;28;20478;-54
2023/10/08 04:21:27;;;;;;;2.97;2.30;;;22.00;99.90;;;;;;5029401;28;20622;-55
2023/10/08 04:23:54;;;;;;;1.57;1.33;;;22.00;99.90;;;;;;5028759;28;20469;-54
2023/10/08 04:26:23;;;;;;;2.27;2.07;;;22.00;99.90;;;;;;5026517;28;20461;-56
2023/10/08 04:28:54;;;;;;;1.90;1.70;;;22.00;99.90;;;;;;5024835;28;20496;-56
2023/10/08 04:31:24;;;;;;;1.70;1.60;;;22.00;99.90;;;;;;5027182;28;20600;-54
2023/10/08 04:33:53;;;;;;;1.40;1.30;;;22.00;99.90;;;;;;5028640;28;20480;-52
2023/10/08 04:36:20;;;;;;;1.67;1.50;;;22.00;99.90;;;;;;5030254;28;20552;-56
2023/10/08 04:38:48;;;;;;;2.00;1.80;;;22.00;99.90;;;;;;5027048;28;20480;-59
2023/10/08 04:41:19;;;;;;;2.80;2.03;;;22.00;99.90;;;;;;5026247;28;20499;-55
2023/10/08 04:43:49;;;;;;;2.27;1.93;;;22.00;99.90;;;;;;5029341;28;20844;-49
2023/10/08 04:46:46;;;;;;;2.10;1.90;;;22.00;99.90;;;;;;5028174;28;20455;-54
2023/10/08 04:49:27;;;;;;;1.80;1.40;;;22.00;99.90;;;;;;5027917;28;20538;-53
2023/10/08 04:51:56;;;;;;;1.87;1.73;;;22.00;99.90;;;;;;5028141;28;20452;-58
2023/10/08 04:54:24;;;;;;;2.00;1.80;;;22.00;99.90;;;;;;5026196;28;20481;-54
2023/10/08 04:56:53;;;;;;;2.77;2.10;;;22.00;99.90;;;;;;5023514;28;20475;-58
2023/10/08 04:59:21;;;;;;;1.80;1.57;;;22.00;99.90;;;;;;5027342;28;21087;-52
2023/10/08 05:01:48;;;;;;;2.10;1.80;;;22.00;99.90;;;;;;5024507;28;20629;-58
2023/10/08 05:04:32;;;;;;;1.67;1.37;;;22.00;99.90;;;;;;5028537;28;20461;-55
2023/10/08 05:07:17;;;;;;;2.40;2.17;;;21.90;99.90;;;;;;5026591;28;20541;-53
2023/10/08 05:10:10;;;;;;;1.70;1.60;;;21.90;99.90;;;;;;5027349;28;20471;-56
2023/10/08 05:12:45;;;;;;;2.37;1.83;;;21.90;99.90;;;;;;5025820;28;20490;-56
2023/10/08 05:18:09;;;;;;;1.60;1.40;;;21.80;99.90;;;;;;5025490;28;20541;-59
2023/10/08 05:20:56;;;;;;;1.90;1.60;;;21.90;99.90;;;;;;5027846;28;20485;-57
2023/10/08 05:23:53;;;;;;;1.80;1.40;;;21.90;99.90;;;;;;5027179;28;21536;-58
2023/10/08 05:26:20;;;;;;;2.13;1.83;;;21.90;99.90;;;;;;5025780;28;20446;-52
2023/10/08 05:29:00;;;;;;;2.23;1.97;;;21.90;99.90;;;;;;5023430;28;20449;-54
2023/10/08 05:31:46;;;;;;;1.90;1.70;;;21.90;99.90;;;;;;5027890;28;20460;-53
2023/10/08 05:34:22;;;;;;;1.83;1.60;;;21.90;99.90;;;;;;5028049;28;20492;-55
2023/10/08 05:36:50;;;;;;;2.00;1.80;;;22.00;99.90;;;;;;5027833;28;20864;-54
2023/10/08 05:39:29;;;;;;;2.13;1.60;;;22.00;99.90;;;;;;5028974;28;21114;-58
2023/10/08 05:42:13;;;;;;;1.93;1.37;;;22.00;99.90;;;;;;5023696;28;20461;-58
2023/10/08 05:44:45;;;;;;;2.10;1.60;;;22.00;99.90;;;;;;5028049;28;20465;-55
2023/10/08 05:47:38;;;;;;;1.40;1.30;;;22.00;99.90;;;;;;5025657;28;20454;-54
2023/10/08 05:53:01;;;;;;;1.80;1.37;;;22.00;99.90;;;;;;5023948;28;20797;-58
2023/10/08 05:55:34;;;;;;;2.77;1.87;;;22.00;99.90;;;;;;5024490;28;20562;-54
2023/10/08 05:58:14;;;;;;;1.60;1.37;;;22.00;99.90;;;;;;5019787;28;21468;-56
2023/10/08 06:01:01;;;;;;;2.83;1.80;;;22.00;99.90;;;;;;5020674;28;20449;-51
2023/10/08 06:03:36;;;;;;;1.53;1.43;;;22.00;99.90;;;;;;5022886;28;20584;-56
2023/10/08 06:06:25;;;;;;;2.00;1.67;;;22.00;99.90;;;;;;5027443;28;20621;-57
2023/10/08 06:09:06;;;;;;;1.80;1.40;;;22.00;99.90;;;;;;5024980;28;20458;-56
2023/10/08 06:11:44;;;;;;;2.30;1.40;;;22.00;99.90;;;;;;5021501;28;20900;-53
2023/10/08 06:14:16;;;;;;;2.60;1.87;;;22.10;99.90;;;;;;5022854;28;20516;-58
2023/10/08 06:16:46;;;;;;;2.63;1.60;;;22.00;99.90;;;;;;5026711;28;20454;-54
2023/10/08 06:19:13;;;;;;;1.97;1.63;;;22.10;99.90;;;;;;5024625;28;20520;-55
2023/10/08 06:21:40;;;;;;;1.60;1.50;;;22.10;99.90;;;;;;5026069;28;20487;-55
2023/10/08 06:24:10;;;;;;;2.20;1.87;;;22.10;99.90;;;;;;5027446;28;20472;-58
2023/10/08 06:26:42;;;;;;;1.93;1.70;;;22.10;99.90;;;;;;5026440;28;20724;-51
2023/10/08 06:29:18;;;;;;;2.00;1.77;;;22.10;99.90;;;;;;5024473;28;20461;-55
2023/10/08 06:31:51;;;;;;;1.87;1.70;;;22.10;99.90;;;;;;5025597;28;20968;-52
2023/10/08 06:34:21;;;;;;;2.90;1.40;;;22.10;99.90;;;;;;5027114;28;20810;-54
2023/10/08 06:36:50;;;;;;;1.50;1.40;;;22.10;99.90;;;;;;5025981;28;21016;-55
2023/10/08 06:39:19;;;;;;;1.53;1.43;;;22.10;99.90;;;;;;5027356;28;20461;-59
2023/10/08 06:41:46;;;;;;;1.93;1.83;;;22.10;99.90;;;;;;5023647;28;20461;-57
2023/10/08 06:44:15;;;;;;;2.20;2.00;;;22.20;99.90;;;;;;5028585;28;20492;-53
2023/10/08 06:46:42;;;;;;;1.60;1.50;;;22.10;99.90;;;;;;5024932;28;20698;-56
2023/10/08 06:49:12;;;;;;;1.30;1.20;;;22.10;99.90;;;;;;5019554;28;20457;-52
2023/10/08 06:51:41;;;;;;;1.60;1.37;;;22.10;99.90;;;;;;5027849;28;20535;-57
2023/10/08 06:54:10;;;;;;;1.53;1.43;;;22.10;99.90;;;;;;5025491;28;20487;-54
2023/10/08 06:56:39;;;;;;;2.17;1.70;;;22.10;99.90;;;;;;5023896;28;20460;-48
2023/10/08 06:59:06;;;;;;;1.87;1.37;;;22.10;99.90;;;;;;5016855;28;20454;-54
2023/10/08 07:01:39;;;;;;;1.40;1.27;;;22.10;99.90;;;;;;5024529;28;20454;-53
2023/10/08 07:04:06;;;;;;;2.13;1.30;;;22.10;99.90;;;;;;5024787;28;21037;-51
2023/10/08 07:06:33;;;;;;;1.67;1.37;;;22.10;99.90;;;;;;5024598;28;20453;-51
2023/10/08 07:09:04;;;;;;;1.87;1.37;;;22.20;99.90;;;;;;5025402;28;20457;-55
2023/10/08 07:11:34;;;;;;;3.07;1.90;;;22.20;99.90;;;;;;5025959;28;21973;-55
2023/10/08 07:14:04;;;;;;;1.30;1.20;;;22.10;99.90;;;;;;5021728;28;20477;-54
2023/10/08 07:16:30;;;;;;;1.83;1.37;;;22.10;99.90;;;;;;5023086;28;20485;-53
2023/10/08 07:19:02;;;;;;;1.60;1.40;;;22.20;99.90;;;;;;5023909;28;21271;-53
2023/10/08 07:21:29;;;;;;;1.80;1.30;;;22.10;99.90;;;;;;5023761;28;20468;-55
2023/10/08 07:24:00;;;;;;;1.20;0.90;;;22.20;99.90;;;;;;5025181;28;20632;-52
2023/10/08 07:26:35;;;;;;;3.27;1.30;;;22.10;99.90;;;;;;5025920;28;20484;-52
2023/10/08 07:29:07;;;;;;;1.40;0.90;;;22.10;99.90;;;;;;5026760;28;20456;-56
2023/10/08 07:31:36;;;;;;;1.20;1.07;;;22.10;99.90;;;;;;5027092;28;20504;-54
2023/10/08 07:34:15;;;;;;;1.70;1.00;;;22.10;99.90;;;;;;5022663;28;21115;-56
2023/10/08 07:36:43;;;;;;;2.40;1.30;;;22.10;99.90;;;;;;5023081;28;20489;-54
2023/10/08 07:39:24;;;;;;;1.60;1.20;;;22.10;99.90;;;;;;5027907;28;20596;-55
2023/10/08 07:41:53;;;;;;;1.60;1.13;;;22.10;99.90;;;;;;5029300;28;20543;-54
2023/10/08 07:44:22;;;;;;;1.70;1.20;;;22.10;99.90;;;;;;5024186;28;20861;-53
2023/10/08 07:46:49;;;;;;;1.93;1.27;;;22.10;99.90;;;;;;5022021;28;20474;-53
2023/10/08 07:49:16;;;;;;;1.53;1.30;;;22.10;99.90;;;;;;5020561;28;20542;-53
2023/10/08 07:51:50;;;;;;;2.57;1.23;;;22.10;99.90;;;;;;5025405;28;20454;-52
2023/10/08 07:54:19;;;;;;;3.07;1.20;;;22.10;99.90;;;;;;5026185;28;20510;-52
2023/10/08 07:56:46;;;;;;;1.77;1.10;;;22.20;99.90;;;;;;5021375;28;20460;-57
2023/10/08 07:59:14;;;;;;;2.47;1.70;;;22.10;99.90;;;;;;5020899;28;21472;-55
2023/10/08 08:01:43;;;;;;;4.10;1.37;;;22.10;99.90;;;;;;5017070;28;20457;-51
2023/10/08 08:04:10;;;;;;;1.87;1.00;;;22.10;99.90;;;;;;5021247;28;20964;-52
2023/10/08 08:06:37;;;;;;;2.33;1.17;;;22.10;99.90;;;;;;5022745;28;20457;-56
2023/10/08 08:09:08;;;;;;;3.63;1.20;;;22.00;99.90;;;;;;5021006;28;20496;-55
2023/10/08 08:11:36;;;;;;;2.63;1.13;;;22.00;99.90;;;;;;5024527;28;20476;-55
2023/10/08 08:14:07;;;;;;;2.20;0.90;;;21.90;99.90;;;;;;5023241;28;20458;-54
2023/10/08 08:16:36;;;;;;;1.80;1.03;;;21.90;99.90;;;;;;5021890;28;20680;-51
2023/10/08 08:19:05;;;;;;;4.03;1.20;;;21.90;99.90;;;;;;5015465;28;20461;-55
2023/10/08 08:21:31;;;;;;;3.70;1.07;;;21.90;99.90;;;;;;5022840;28;20934;-58
2023/10/08 08:24:05;;;;;;;3.93;1.30;;;21.80;99.90;;;;;;5025145;28;20453;-53
2023/10/08 08:26:40;;;;;;;5.90;2.63;;;21.80;99.90;;;;;;5021715;28;20957;-56
2023/10/08 08:29:08;;;;;;;3.93;2.33;;;21.80;99.70;;;;;;5024833;28;20550;-53
2023/10/08 08:31:36;;;;;;;2.23;1.43;;;21.80;99.50;;;;;;5025183;28;21406;-54
2023/10/08 08:34:09;;;;;;;2.70;1.80;;;21.80;99.60;;;;;;5021960;28;20457;-52
2023/10/08 08:36:38;;;;;;;2.93;1.70;;;21.80;99.70;;;;;;5024641;28;20469;-53
2023/10/08 08:39:08;;;;;;;4.80;1.77;;;21.70;99.40;;;;;;5023819;28;22203;-56
2023/10/08 08:41:38;;;;;;;1.80;1.37;;;21.70;99.50;;;;;;5023068;28;20477;-55
2023/10/08 08:44:06;;;;;;;4.10;2.10;;;21.70;99.30;;;;;;5019158;28;20882;-53
2023/10/08 08:46:36;;;;;;;2.10;1.37;;;21.70;99.20;;;;;;5022508;28;20453;-53
2023/10/08 08:49:07;;;;;;;4.37;1.53;;;21.70;99.20;;;;;;5021939;28;21260;-50
2023/10/08 08:51:34;;;;;;;3.43;2.07;;;21.70;99.10;;;;;;5027988;28;21281;-54
2023/10/08 08:54:06;;;;;;;3.97;1.27;;;21.60;99.10;;;;;;5027579;28;20460;-54
2023/10/08 08:56:33;;;;;;;2.33;1.50;;;21.70;99.00;;;;;;5023320;28;20454;-53
2023/10/08 08:59:02;;;;;;;4.20;1.60;;;21.60;98.70;;;;;;5024171;28;20473;-52
2023/10/08 09:01:30;;;;;;;2.73;1.30;;;21.60;98.70;;;;;;5026137;28;20457;-50
2023/10/08 09:04:01;;;;;;;1.83;1.13;;;21.60;98.60;;;;;;5026975;28;20470;-52
2023/10/08 09:06:31;;;;;;;3.03;1.40;;;21.60;98.50;;;;;;5027966;28;21277;-55
2023/10/08 09:09:11;;;;;;;3.83;1.00;;;21.60;98.50;;;;;;5028255;28;20563;-51
2023/10/08 09:11:41;;;;;;;3.00;1.43;;;21.60;98.30;;;;;;5025952;28;20457;-56
2023/10/08 09:14:10;;;;;;;3.60;1.70;;;21.60;98.20;;;;;;5021970;28;20468;-57
2023/10/08 09:16:37;;;;;;;3.50;1.50;;;21.50;98.00;;;;;;5028203;28;20464;-57
2023/10/08 09:19:11;;;;;;;2.60;1.10;;;21.50;98.00;;;;;;5026750;28;20464;-53
2023/10/08 09:21:40;;;;;;;1.77;1.10;;;21.60;97.90;;;;;;5025054;28;20456;-58
2023/10/08 09:24:10;;;;;;;3.07;1.33;;;21.50;98.50;;;;;;5026723;28;22262;-53
2023/10/08 09:26:39;;;;;;;3.53;1.00;;;21.60;98.60;;;;;;5027094;28;20555;-50
2023/10/08 09:29:07;;;;;;;4.97;1.50;;;21.60;98.80;;;;;;5016835;28;20526;-55
2023/10/08 09:31:36;;;;;;;2.27;1.30;;;21.60;98.90;;;;;;5022843;28;20606;-50
2023/10/08 09:34:04;;;;;;;1.67;0.97;;;21.70;98.90;;;;;;5024022;28;20508;-57
2023/10/08 09:36:33;;;;;;;5.90;2.23;;;21.70;99.00;;;;;;5027347;28;20471;-52
2023/10/08 09:39:04;;;;;;;2.53;1.20;;;21.70;98.90;;;;;;5027577;28;20509;-54
2023/10/08 09:41:32;;;;;;;1.80;1.10;;;21.70;99.10;;;;;;5029999;28;20457;-55
2023/10/08 09:44:00;;;;;;;2.70;1.30;;;21.80;99.40;;;;;;5027626;28;20457;-51
2023/10/08 09:46:32;;;;;;;3.13;1.20;;;21.80;99.80;;;;;;5029487;28;20477;-56
2023/10/08 09:49:01;;;;;;;2.70;0.80;;;21.80;99.50;;;;;;5028249;28;21502;-56
2023/10/08 09:51:31;;;;;;;2.20;1.40;;;21.80;99.60;;;;;;5028526;28;22244;-53
2023/10/08 09:54:10;;;;;;;2.10;1.03;;;21.80;99.60;;;;;;5022740;28;20480;-49
2023/10/08 09:56:39;;;;;;;1.10;0.87;;;21.90;99.70;;;;;;5027134;28;20556;-57
2023/10/08 09:59:07;;;;;;;4.67;1.17;;;21.90;99.80;;;;;;5023920;28;20465;-53
2023/10/08 10:01:34;;;;;;;2.03;1.23;;;21.90;99.80;;;;;;5019031;28;20465;-54
2023/10/08 10:04:01;;;;;;;2.33;1.20;;;21.90;99.80;;;;;;5025234;28;21153;-54
2023/10/08 10:06:29;;;;;;;1.77;1.00;;;21.90;99.80;;;;;;5022570;28;21176;-54
2023/10/08 10:08:58;;;;;;;2.20;1.27;;;21.90;99.90;;;;;;5027412;28;21098;-55
2023/10/08 10:11:30;;;;;;;2.50;2.20;;;21.90;99.90;;;;;;5028375;28;20640;-56
2023/10/08 10:14:00;;;;;;;2.40;1.40;;;21.90;99.90;;;;;;5017664;28;20453;-53
2023/10/08 10:16:27;;;;;;;2.90;1.20;;;21.90;99.90;;;;;;5024078;28;20571;-52
2023/10/08 10:18:58;;;;;;;1.57;1.10;;;21.90;99.90;;;;;;5022982;28;21086;-53
2023/10/08 10:21:33;;;;;;;2.47;1.00;;;21.90;99.90;;;;;;5023802;28;20965;-54
2023/10/08 10:24:01;;;;;;;1.83;1.00;;;22.00;99.90;;;;;;5024627;28;20465;-52
2023/10/08 10:26:31;;;;;;;3.27;1.30;;;22.00;99.90;;;;;;5027026;28;20977;-51
2023/10/08 10:29:21;;;;;;;1.80;0.90;;;22.00;99.90;;;;;;5025474;28;20486;-52
2023/10/08 10:31:53;;;;;;;3.37;1.20;;;22.00;99.90;;;;;;5023372;28;20484;-57
2023/10/08 10:34:22;;;;;;;1.53;1.00;;;22.00;99.90;;;;;;5025784;28;20457;-53
2023/10/08 10:36:55;;;;;;;1.93;1.00;;;22.00;99.90;;;;;;5025419;28;20489;-54
2023/10/08 10:39:27;;;;;;;2.10;1.20;;;22.00;99.90;;;;;;5026880;28;20991;-55
2023/10/08 10:41:57;;;;;;;2.70;1.53;;;22.00;99.90;;;;;;5019684;28;20453;-52
2023/10/08 10:44:24;;;;;;;1.50;0.97;;;22.00;99.90;;;;;;5026324;28;22430;-57
2023/10/08 10:46:51;;;;;;;1.50;1.10;;;22.00;99.90;;;;;;5023239;28;20457;-57
2023/10/08 10:49:18;;;;;;;1.60;1.10;;;22.00;99.90;;;;;;5027442;28;20544;-54
2023/10/08 10:51:47;;;;;;;1.87;1.30;;;22.00;99.90;;;;;;5026732;28;20457;-52
2023/10/08 10:54:20;;;;;;;2.00;1.03;;;22.00;99.90;;;;;;5025586;28;20453;-51
2023/10/08 10:56:47;;;;;;;3.20;1.50;;;22.00;99.90;;;;;;5026301;28;20465;-57
2023/10/08 10:59:27;;;;;;;1.80;0.90;;;22.00;99.90;;;;;;5027991;28;20464;-53
2023/10/08 11:02:05;;;;;;;1.77;1.00;;;22.00;99.90;;;;;;5023707;28;20464;-56
2023/10/08 11:04:33;;;;;;;5.10;1.20;;;22.00;99.90;;;;;;5025386;28;20464;-57
2023/10/08 11:07:00;;;;;;;2.00;1.30;;;22.00;99.90;;;;;;5024424;28;21465;-52
2023/10/08 11:09:38;;;;;;;2.00;1.10;;;22.00;99.90;;;;;;5027252;28;21254;-51
2023/10/08 11:12:11;;;;;;;2.10;1.23;;;22.00;99.90;;;;;;5022884;28;20453;-53
2023/10/08 11:14:42;;;;;;;2.17;1.10;;;22.10;99.90;;;;;;5026695;28;20461;-54
2023/10/08 11:17:14;;;;;;;1.83;1.17;;;22.10;99.90;;;;;;5017392;28;20481;-50
2023/10/08 11:19:45;;;;;;;1.70;1.27;;;22.10;99.90;;;;;;5027229;28;21369;-55
2023/10/08 11:22:16;;;;;;;1.43;1.33;;;22.10;99.90;;;;;;5026370;28;20460;-56
2023/10/08 11:24:47;;;;;;;1.40;0.90;;;22.10;99.90;;;;;;5021841;28;20457;-51
2023/10/08 11:27:17;;;;;;;2.27;1.20;;;22.10;99.90;;;;;;5022206;28;21204;-53
2023/10/08 11:29:47;;;;;;;4.50;1.13;;;22.10;99.90;;;;;;5026633;28;20999;-54
2023/10/08 11:32:17;;;;;;;5.20;1.20;;;22.10;99.70;;;;;;5025938;28;20468;-55
2023/10/08 11:34:49;;;;;;;1.80;1.00;;;22.10;99.50;;;;;;5022594;28;20555;-56
2023/10/08 11:37:26;;;;;;;2.43;1.30;;;22.00;99.20;;;;;;5026452;28;20492;-56
2023/10/08 11:39:57;;;;;;;3.67;1.57;;;22.00;99.10;;;;;;5026528;28;20457;-53
2023/10/08 11:42:40;;;;;;;3.33;1.20;;;22.00;99.00;;;;;;5023892;28;21281;-56
2023/10/08 11:45:26;;;;;;;4.70;1.20;;;22.00;99.10;;;;;;5027440;28;20559;-57
2023/10/08 11:47:56;;;;;;;3.50;1.27;;;22.00;99.00;;;;;;5022378;28;20457;-50
2023/10/08 11:50:31;;;;;;;1.20;0.90;;;22.00;98.90;;;;;;5027279;28;20483;-56
2023/10/08 11:53:02;;;;;;;1.70;0.97;;;22.00;98.80;;;;;;5025011;28;20461;-57
2023/10/08 11:55:29;;;;;;;3.60;1.00;;;22.00;98.90;;;;;;5026518;28;20476;-56
2023/10/08 11:57:57;;;;;;;2.37;1.00;;;22.00;98.80;;;;;;5024300;28;20461;-57
2023/10/08 12:00:26;;;;;;;4.30;2.00;;;22.00;98.70;;;;;;5025790;28;20465;-53
2023/10/08 12:02:54;;;;;;;4.53;1.77;;;22.00;98.70;;;;;;5020162;28;20472;-54
2023/10/08 12:05:23;;;;;;;4.13;2.30;;;22.00;98.70;;;;;;5023934;28;21080;-50
2023/10/08 12:07:51;;;;;;;4.20;1.37;;;21.90;98.60;;;;;;5027614;28;20473;-55
2023/10/08 12:10:22;;;;;;;4.30;1.40;;;21.90;98.50;;;;;;5027442;28;20523;-53
2023/10/08 12:12:51;;;;;;;4.90;1.30;;;21.90;98.60;;;;;;5024553;28;20842;-51
2023/10/08 12:15:19;;;;;;;4.67;1.60;;;22.00;98.80;;;;;;5024000;28;20465;-55
2023/10/08 12:18:08;;;;;;;6.83;1.27;;;22.00;98.90;;;;;;5024401;28;20503;-54
2023/10/08 12:20:37;;;;;;;3.67;1.30;;;22.00;99.10;;;;;;5027520;28;20464;-52
2023/10/08 12:23:04;;;;;;;4.30;1.80;;;22.00;99.20;;;;;;5027325;28;20485;-55
2023/10/08 12:25:32;;;;;;;6.50;1.77;;;22.00;99.40;;;;;;5029508;28;21261;-53
2023/10/08 12:28:02;;;;;;;7.13;1.37;;;22.00;99.80;;;;;;5030735;28;20465;-54
2023/10/08 12:30:31;;;;;;;8.40;1.40;;;22.00;99.60;;;;;;5023463;28;21139;-52
2023/10/08 12:33:00;;;;;;;10.47;1.87;;;22.00;99.50;;;;;;5027040;28;20457;-53
2023/10/08 12:35:29;;;;;;;6.63;1.87;;;22.00;99.70;;;;;;5024865;28;20461;-56
2023/10/08 12:37:56;;;;;;;3.30;1.60;;;22.10;99.90;;;;;;5027922;28;20457;-55
2023/10/08 12:40:23;;;;;;;6.50;1.30;;;22.00;99.90;;;;;;5030721;28;20461;-51
2023/10/08 12:42:51;;;;;;;5.50;1.70;;;22.00;99.90;;;;;;5028667;28;20465;-57
2023/10/08 12:45:20;;;;;;;3.43;1.40;;;22.10;99.90;;;;;;5026381;28;20453;-56
2023/10/08 12:47:49;;;;;;;3.27;1.40;;;22.10;99.90;;;;;;5023740;28;20530;-54
2023/10/08 12:50:23;;;;;;;1.97;1.40;;;22.10;99.90;;;;;;5031059;28;20461;-56
2023/10/08 12:52:55;;;;;;;4.63;1.37;;;22.10;99.90;;;;;;5023609;28;20461;-53
2023/10/08 12:55:23;;;;;;;4.50;1.23;;;22.10;99.90;;;;;;5024894;28;20675;-53
2023/10/08 12:57:55;;;;;;;5.07;1.40;;;22.10;99.90;;;;;;5030287;28;20484;-56
2023/10/08 13:00:24;;;;;;;2.37;1.70;;;22.20;99.90;;;;;;5026325;28;21285;-57
2023/10/08 13:02:53;;;;;;;2.47;1.10;;;22.10;99.90;;;;;;5023669;28;20723;-55
2023/10/08 13:05:27;;;;;;;4.57;1.40;;;22.10;99.90;;;;;;5024428;28;21005;-52
2023/10/08 13:07:56;;;;;;;2.70;1.27;;;22.10;99.90;;;;;;5028227;28;20940;-54
2023/10/08 13:10:23;;;;;;;2.00;1.67;;;22.10;99.90;;;;;;5027669;28;21135;-56
2023/10/08 13:12:50;;;;;;;2.50;1.40;;;22.20;99.90;;;;;;5025658;28;20465;-53
2023/10/08 13:15:17;;;;;;;3.00;1.20;;;22.20;99.90;;;;;;5023568;28;20461;-52
2023/10/08 13:17:45;;;;;;;2.90;1.30;;;22.20;99.90;;;;;;5022324;28;20477;-52